Latest Weather Observations for Lucas Heights (ANSTO)

IDN60801

Issued at 1:03 pm EDT Thursday 8 December 2022 (issued every 10 minutes, with the page automatically refreshed every 10 minutes)

About weather observations | Map of weather stations | Latest weather observations for NSW | Other Formats
Station Details ID: 066023 Name: LUCAS HEIGHTS (ANSTO) Lat: -34.05 Lon: 150.98 Height: 140.0 m
Data from the previous 72 hours. | See also: Recent months for locations in New South Wales
Date/Time
EDT
Temp
°C
App
Temp
°C
Dew
Point
°C
Rel
Hum
%
Delta-T
°C
Wind Press
QNH
hPa
Press
MSL
hPa
Rain since
9am
mm
Dir  Spd
km/h
Gust
km/h
Spd
kts
Gust
kts
08/12:45pm 19.0 15.1 8.8 51 5.4 ESE 19 26 10 14 1004.8 - 0.0
08/12:30pm 19.5 16.5 9.2 51 5.5 ESE 15 24 8 13 1004.8 - 0.0
08/12:15pm 19.0 15.5 8.9 52 5.3 ESE 17 24 9 13 1004.9 - 0.0
08/12:00pm 19.2 15.8 9.0 51 5.4 ESE 17 22 9 12 1005.0 - 0.0
08/11:45am 19.2 15.8 9.2 52 5.3 SE 17 24 9 13 1005.0 - 0.0
08/11:30am 18.7 14.9 9.2 54 5.0 SE 19 26 10 14 1005.0 - 0.0
08/11:15am 19.0 15.9 8.9 52 5.3 SE 15 24 8 13 1004.9 - 0.0
08/11:00am 19.5 16.5 9.2 51 5.5 SSE 15 22 8 12 1005.0 - 0.0
08/10:45am 19.0 15.3 9.5 54 5.1 SSE 19 24 10 13 1005.0 - 0.0
08/10:30am 18.2 13.9 9.3 56 4.7 SSE 22 30 12 16 1005.0 - 0.0
08/10:15am 19.3 16.2 8.7 50 5.6 S 15 22 8 12 1005.0 - 0.0
08/10:00am 19.5 16.6 6.5 42 6.6 S 11 22 6 12 1004.9 - 0.0
08/09:45am 19.7 14.2 2.1 31 8.1 SW 20 26 11 14 1004.9 - 0.0
08/09:30am 19.6 13.7 2.0 31 8.1 SSW 22 30 12 16 1005.0 - 0.0
08/09:15am 19.7 14.3 2.6 32 8.0 SSW 20 26 11 14 1004.9 - 0.0
08/09:00am 19.3 14.2 3.2 34 7.6 SW 19 26 10 14 1004.8 - 0.0
08/08:45am 18.8 12.0 2.9 34 7.4 SW 28 35 15 19 1004.7 - 0.0
08/08:30am 18.6 10.8 2.6 34 7.4 SW 33 44 18 24 1004.6 - 0.0
08/08:15am 18.6 10.8 2.6 34 7.4 SW 33 48 18 26 1004.4 - 0.0
08/08:00am 18.5 10.7 3.1 36 7.2 SW 33 43 18 23 1004.2 - 0.0
08/07:45am 18.5 10.8 3.5 37 7.1 SW 33 43 18 23 1004.1 - 0.0
08/07:30am 18.5 11.9 4.3 39 6.8 SW 28 37 15 20 1003.9 - 0.0
08/07:15am 18.3 12.6 5.0 41 6.5 SW 24 30 13 16 1003.8 - 0.0
08/07:00am 18.1 11.3 5.2 42 6.3 SW 30 35 16 19 1003.4 - 0.0
08/06:45am 18.0 11.8 6.2 46 5.9 SW 28 39 15 21 1003.1 - 0.0
08/06:30am 18.0 11.6 6.9 48 5.6 SW 30 39 16 21 1003.0 - 0.0
08/06:15am 18.1 11.4 8.3 52 5.1 SSW 33 48 18 26 1002.9 - 0.0
08/06:00am 17.9 13.4 9.9 59 4.3 SSW 24 37 13 20 1002.5 - 0.0
08/05:45am 18.0 13.5 10.1 60 4.2 SW 24 26 13 14 1002.1 - 0.0
08/05:30am 17.6 13.9 10.2 62 4.0 SW 20 26 11 14 1001.8 - 0.0
08/05:15am 17.6 14.5 10.3 62 3.9 SW 17 22 9 12 1001.7 - 0.0
08/05:00am 17.8 15.1 10.4 62 4.0 SW 15 20 8 11 1001.5 - 0.0
08/04:45am 18.2 15.1 10.4 60 4.2 SW 17 20 9 11 1001.2 - 0.0
08/04:30am 18.6 15.0 10.6 59 4.3 SW 20 24 11 13 1001.2 - 0.0
08/04:15am 18.7 14.8 10.8 60 4.3 SW 22 26 12 14 1001.2 - 0.0
08/04:00am 18.6 14.5 11.3 62 4.0 SW 24 30 13 16 1001.1 - 0.0
08/03:45am 18.5 14.8 11.4 63 3.9 SSW 22 26 12 14 1001.2 - 0.0
08/03:30am 18.2 12.9 11.4 64 3.7 SW 30 32 16 17 1001.0 - 0.0
08/03:15am 17.8 14.0 11.3 65 3.6 SW 22 26 12 14 1000.9 - 0.0
08/03:00am 17.6 14.6 10.8 64 3.7 SSW 17 17 9 9 1000.7 - 0.0
08/02:45am 18.5 15.2 11.0 61 4.1 SW 19 20 10 11 1000.6 - 0.0
08/02:30am 18.7 14.6 11.3 62 4.1 WSW 24 32 13 17 1000.5 - 0.0
08/02:15am 18.3 14.1 11.1 63 3.9 SW 24 30 13 16 1000.7 - 0.0
08/02:00am 18.5 14.3 11.1 62 4.0 SW 24 28 13 15 1000.8 - 0.0
08/01:45am 18.7 14.1 11.1 61 4.2 WSW 26 33 14 18 1001.1 - 0.0
08/01:30am 18.7 14.1 11.0 61 4.2 WSW 26 32 14 17 1001.1 - 0.0
08/01:15am 18.6 14.0 11.0 61 4.1 WSW 26 32 14 17 1000.9 - 0.0
08/01:00am 18.6 13.6 10.9 61 4.2 W 28 30 15 16 1000.7 - 0.0
08/12:45am 18.8 14.6 11.0 60 4.3 W 24 26 13 14 1000.9 - 0.0
08/12:30am 18.9 14.3 11.1 60 4.3 W 26 26 14 14 1001.3 - 0.0
08/12:15am 19.1 14.1 11.1 59 4.4 W 28 30 15 16 1001.4 - 0.0
08/12:00am 18.9 14.0 11.3 61 4.2 W 28 32 15 17 1001.3 - 0.0
 
Date/Time
EDT
Temp
°C
App
Temp
°C
Dew
Point
°C
Rel
Hum
%
Delta-T
°C
Wind Press
QNH
hPa
Press
MSL
hPa
Rain since
9am
mm
Dir  Spd
km/h
Gust
km/h
Spd
kts
Gust
kts
07/11:45pm 18.8 14.7 11.3 61 4.1 W 24 26 13 14 1001.3 - 0.0
07/11:30pm 19.1 15.7 11.2 60 4.3 W 20 20 11 11 1001.2 - 0.0
07/11:15pm 19.5 15.7 11.2 58 4.6 W 22 20 12 11 1000.9 - 0.0
07/11:00pm 19.9 16.5 11.3 57 4.8 W 20 20 11 11 1001.1 - 0.0
07/10:45pm 19.7 16.5 11.3 58 4.6 W 19 22 10 12 1001.0 - 0.0
07/10:30pm 19.8 17.3 11.2 57 4.7 W 15 17 8 9 1001.0 - 0.0
07/10:15pm 20.0 17.9 11.0 56 5.0 W 13 15 7 8 1000.8 - 0.0
07/10:00pm 20.5 17.6 10.9 54 5.3 W 17 20 9 11 1000.9 - 0.0
07/09:45pm 20.7 17.4 10.9 53 5.4 W 19 20 10 11 1000.9 - 0.0
07/09:30pm 20.8 17.5 10.9 53 5.5 W 19 20 10 11 1000.8 - 0.0
07/09:15pm 20.3 18.5 10.7 54 5.3 WNW 11 13 6 7 1000.8 - 0.0
07/09:00pm 20.3 19.2 10.5 53 5.4 WNW 7 9 4 5 1001.0 - 0.0
07/08:45pm 20.7 19.2 10.4 51 5.6 W 9 17 5 9 1001.2 - 0.0
07/08:30pm 21.1 19.5 10.3 50 5.9 W 9 17 5 9 1001.4 - 0.0
07/08:15pm 21.3 18.2 10.2 49 6.1 WNW 17 17 9 9 1001.0 - 0.0
07/08:00pm 21.6 18.4 10.0 47 6.3 WNW 17 19 9 10 1000.6 - 0.0
07/07:45pm 21.8 18.0 9.7 46 6.6 WNW 20 26 11 14 1001.3 - 0.0
07/07:30pm 21.9 18.1 9.2 44 6.8 WNW 19 22 10 12 1001.1 - 0.0
07/07:15pm 22.3 18.4 8.6 41 7.3 W 19 20 10 11 1001.3 - 0.0
07/07:00pm 22.3 18.3 8.1 40 7.5 WNW 19 24 10 13 1000.8 - 0.0
07/06:45pm 22.7 18.5 7.4 37 8.0 WNW 19 22 10 12 1000.7 - 0.0
07/06:30pm 23.0 19.1 7.1 36 8.3 NW 17 22 9 12 1000.6 - 0.0
07/06:15pm 23.5 19.5 6.7 34 8.7 WNW 17 19 9 10 1000.9 - 0.0
07/06:00pm 23.4 19.0 6.5 33 8.7 WNW 19 22 10 12 1000.7 - 0.0
07/05:45pm 23.8 19.6 5.6 31 9.3 WNW 17 22 9 12 1000.5 - 0.0
07/05:30pm 24.0 19.0 4.8 29 9.7 WNW 20 24 11 13 1000.8 - 0.0
07/05:15pm 24.2 19.8 4.6 28 9.8 WNW 17 22 9 12 1000.7 - 0.0
07/05:00pm 24.4 19.0 4.5 27 10.0 WNW 22 30 12 16 1001.1 - 0.0
07/04:45pm 24.8 18.6 4.3 26 10.3 WNW 26 32 14 17 1001.2 - 0.0
07/04:30pm 25.0 20.2 4.6 26 10.3 WNW 19 26 10 14 1000.6 - 0.0
07/04:15pm 25.2 21.3 5.3 27 10.2 WNW 15 22 8 12 1000.8 - 0.0
07/04:00pm 25.5 22.6 9.7 37 8.7 W 15 28 8 15 1001.5 - 0.0
07/03:45pm 25.5 24.4 10.8 39 8.3 WSW 7 11 4 6 1001.5 - 0.0
07/03:30pm 25.4 24.0 10.8 40 8.2 WSW 9 13 5 7 1001.8 - 0.0
07/03:15pm 25.4 24.3 10.6 39 8.3 W 7 9 4 5 1001.7 - 0.0
07/03:00pm 25.5 24.3 10.3 38 8.5 W 7 13 4 7 1002.0 - 0.0
07/02:45pm 25.6 23.1 9.7 36 8.8 W 13 17 7 9 1002.4 - 0.0
07/02:30pm 25.7 24.2 10.6 38 8.5 WNW 9 15 5 8 1002.3 - 0.0
07/02:15pm 25.6 23.2 9.9 37 8.7 WNW 13 17 7 9 1002.5 - 0.0
07/02:00pm 25.6 22.3 9.6 36 8.8 WNW 17 22 9 12 1002.6 - 0.0
07/01:45pm 25.7 22.8 9.6 36 8.9 NW 15 19 8 10 1002.8 - 0.0
07/01:30pm 25.8 22.7 9.0 34 9.2 WNW 15 19 8 10 1002.9 - 0.0
07/01:15pm 25.9 22.2 8.1 32 9.6 WNW 17 20 9 11 1003.1 - 0.0
07/01:00pm 26.0 22.6 7.8 31 9.8 W 15 22 8 12 1003.2 - 0.0
07/12:45pm 26.1 21.9 7.4 30 10.0 W 19 26 10 14 1003.4 - 0.0
07/12:30pm 26.0 22.4 8.4 32 9.5 W 17 22 9 12 1003.5 - 0.0
07/12:15pm 25.3 22.0 9.6 37 8.7 WNW 17 22 9 12 1003.8 - 0.0
07/12:00pm 24.9 22.6 10.4 40 8.1 WNW 13 20 7 11 1003.9 - 0.0
07/11:45am 24.3 21.3 10.6 42 7.7 WNW 17 20 9 11 1003.9 - 0.0
07/11:30am 24.4 21.3 10.4 41 7.8 WNW 17 22 9 12 1003.7 - 0.0
07/11:15am 24.6 21.7 11.1 42 7.6 WNW 17 22 9 12 1003.8 - 0.0
07/11:00am 24.2 21.7 12.2 47 6.9 WNW 17 20 9 11 1003.8 - 0.0
07/10:45am 23.2 21.7 13.0 52 5.9 WNW 13 20 7 11 1004.0 - 0.0
07/10:30am 22.5 20.1 12.7 54 5.6 WNW 17 20 9 11 1004.2 - 0.0
07/10:15am 22.4 20.4 13.9 58 5.0 WNW 17 26 9 14 1004.4 - 0.0
07/10:00am 21.8 20.6 14.1 61 4.5 NW 13 19 7 10 1004.3 - 0.0
07/09:45am 21.2 20.0 14.1 64 4.2 NW 13 17 7 9 1004.4 - 0.0
07/09:30am 20.6 19.5 14.3 67 3.7 NW 13 17 7 9 1004.5 - 0.0
07/09:15am 19.8 18.7 14.4 71 3.2 WNW 13 15 7 8 1004.7 - 0.0
07/09:00am 19.4 18.7 14.4 73 2.9 WNW 11 15 6 8 1005.0 - 0.0
07/08:45am 18.9 17.9 14.5 75 2.6 WNW 13 15 7 8 1005.1 - 0.0
07/08:30am 18.3 17.2 14.3 77 2.3 NW 13 19 7 10 1005.2 - 0.0
07/08:15am 17.9 16.4 14.3 79 2.1 NW 15 19 8 10 1005.3 - 0.0
07/08:00am 17.5 16.0 14.2 81 1.9 WNW 15 19 8 10 1005.3 - 0.0
07/07:45am 17.3 16.7 14.6 84 1.6 NW 11 15 6 8 1005.2 - 0.0
07/07:30am 16.9 15.9 14.7 87 1.3 NW 13 15 7 8 1005.1 - 0.0
07/07:15am 16.4 16.6 14.7 90 1.0 NW 7 13 4 7 1005.0 - 0.0
07/07:00am 16.0 16.2 14.7 92 0.7 NW 7 11 4 6 1005.1 - 0.0
07/06:45am 15.3 14.6 14.4 94 0.5 NNW 11 13 6 7 1005.2 - 0.0
07/06:30am 14.3 13.6 13.3 94 0.6 NNW 9 11 5 6 1005.2 - 0.0
07/06:15am 13.8 12.6 12.8 94 0.6 NNW 11 11 6 6 1005.4 - 0.0
07/06:00am 13.3 12.7 12.2 93 0.6 NNW 7 9 4 5 1005.5 - 0.0
07/05:45am 13.0 11.9 11.8 92 0.6 NNW 9 9 5 5 1005.5 - 0.0
07/05:30am 13.0 11.4 11.7 92 0.7 NNW 11 11 6 6 1005.4 - 0.0
07/05:15am 13.1 11.6 11.8 92 0.7 NNW 11 13 6 7 1005.3 - 0.0
07/05:00am 13.2 11.3 11.8 91 0.8 NNW 13 13 7 7 1005.3 - 0.0
07/04:45am 13.4 11.9 12.0 91 0.8 NNW 11 13 6 7 1005.4 - 0.0
07/04:30am 13.6 11.8 12.2 91 0.8 NNW 13 13 7 7 1005.4 - 0.0
07/04:15am 13.6 11.4 12.0 90 0.9 NNW 15 15 8 8 1005.5 - 0.0
07/04:00am 13.7 11.9 12.0 89 0.9 NNW 13 13 7 7 1005.5 - 0.0
07/03:45am 13.9 12.5 12.2 89 0.9 NNW 11 11 6 6 1005.4 - 0.0
07/03:30am 13.7 12.2 11.9 89 1.0 NW 11 11 6 6 1005.7 - 0.0
07/03:15am 13.9 12.4 11.9 88 1.1 NNW 11 11 6 6 1005.9 - 0.0
07/03:00am 14.2 12.7 12.0 87 1.2 NNW 11 11 6 6 1006.1 - 0.0
07/02:45am 14.4 12.9 12.0 85 1.3 NNW 11 11 6 6 1006.3 - 0.0
07/02:30am 14.9 13.9 12.3 84 1.4 NNW 9 11 5 6 1006.4 - 0.0
07/02:15am 15.3 14.9 12.5 83 1.5 NNW 6 7 3 4 1006.5 - 0.0
07/02:00am 15.6 15.1 12.8 83 1.6 NNW 7 9 4 5 1006.9 - 0.0
07/01:45am 15.6 15.1 12.8 83 1.6 NNW 7 9 4 5 1007.2 - 0.0
07/01:30am 15.4 15.1 12.7 84 1.5 N 6 7 3 4 1007.4 - 0.0
07/01:15am 15.5 15.2 12.8 84 1.5 NNE 6 7 3 4 1007.6 - 0.0
07/01:00am 15.1 14.7 12.5 84 1.4 NE 6 7 3 4 1007.4 - 0.0
07/12:45am 15.0 14.3 12.1 83 1.6 NE 7 9 4 5 1007.4 - 0.0
07/12:30am 15.5 14.5 12.2 81 1.8 ENE 9 9 5 5 1007.5 - 0.0
07/12:15am 16.1 15.2 12.5 79 2.0 ENE 9 9 5 5 1007.8 - 0.0
07/12:00am 16.5 16.0 12.8 79 2.1 ENE 7 9 4 5 1008.3 - 0.0
 
Date/Time
EDT
Temp
°C
App
Temp
°C
Dew
Point
°C
Rel
Hum
%
Delta-T
°C
Wind Press
QNH
hPa
Press
MSL
hPa
Rain since
9am
mm
Dir  Spd
km/h
Gust
km/h
Spd
kts
Gust
kts
06/11:45pm 16.6 16.2 13.0 79 2.0 ENE 7 9 4 5 1008.6 - 0.0
06/11:30pm 16.3 15.9 13.0 81 1.8 ENE 7 9 4 5 1008.9 - 0.0
06/11:15pm 16.0 15.7 12.7 81 1.8 ENE 6 7 3 4 1008.9 - 0.0
06/11:00pm 15.9 16.0 12.7 81 1.8 E 4 7 2 4 1008.9 - 0.0
06/10:45pm 15.7 15.4 12.6 82 1.7 E 6 7 3 4 1008.8 - 0.0
06/10:30pm 15.3 14.7 12.2 82 1.7 E 7 9 4 5 1008.6 - 0.0
06/10:15pm 15.4 14.7 12.0 80 1.9 E 7 9 4 5 1008.6 - 0.0
06/10:00pm 15.8 15.2 12.2 79 2.0 E 7 9 4 5 1008.4 - 0.0
06/09:45pm 16.0 15.4 12.3 79 2.0 E 7 9 4 5 1008.3 - 0.0
06/09:30pm 16.1 15.5 12.3 78 2.1 E 7 9 4 5 1008.2 - 0.0
06/09:15pm 16.2 15.2 12.3 78 2.2 E 9 11 5 6 1008.1 - 0.0
06/09:00pm 16.5 15.9 12.3 76 2.3 E 7 9 4 5 1008.0 - 0.0
06/08:45pm 16.8 16.2 12.3 75 2.5 E 7 13 4 7 1008.0 - 0.0
06/08:30pm 17.0 16.4 12.3 74 2.6 E 7 11 4 6 1007.9 - 0.0
06/08:15pm 17.2 15.8 12.3 73 2.7 E 11 13 6 7 1007.8 - 0.0
06/08:00pm 17.3 15.6 12.6 74 2.6 ESE 13 17 7 9 1007.6 - 0.0
06/07:45pm 17.4 15.4 12.8 74 2.6 E 15 19 8 10 1007.4 - 0.0
06/07:30pm 17.5 15.1 12.7 73 2.7 ESE 17 19 9 10 1007.1 - 0.0
06/07:15pm 17.6 15.1 12.4 71 2.9 ESE 17 20 9 11 1007.0 - 0.0
06/07:00pm 17.7 14.8 12.4 71 3.0 ESE 19 24 10 13 1006.7 - 0.0
06/06:45pm 17.7 14.6 12.3 70 3.0 ESE 20 26 11 14 1006.3 - 0.0
06/06:30pm 18.6 15.6 12.5 67 3.4 ESE 20 26 11 14 1006.0 - 0.0
06/06:15pm 18.6 15.1 12.1 66 3.6 ESE 22 28 12 15 1005.9 - 0.0
06/06:00pm 18.8 14.1 12.1 65 3.7 ESE 28 33 15 18 1005.7 - 0.0
06/05:45pm 19.1 15.5 12.0 63 4.0 SE 22 33 12 18 1005.5 - 0.0
06/05:30pm 19.2 14.8 11.8 62 4.1 SE 26 32 14 17 1005.4 - 0.0
06/05:15pm 19.2 14.0 11.5 61 4.3 SE 30 35 16 19 1005.2 - 0.0
06/05:00pm 19.6 14.8 11.7 60 4.4 SE 28 39 15 21 1005.1 - 0.0
06/04:45pm 19.9 15.6 11.9 60 4.5 ESE 26 37 14 20 1005.2 - 0.0
06/04:30pm 19.9 15.5 11.8 59 4.5 ESE 26 37 14 20 1005.3 - 0.0
06/04:15pm 19.9 15.0 11.4 58 4.7 ESE 28 39 15 21 1005.3 - 0.0
06/04:00pm 20.1 14.4 11.0 55 5.0 SE 32 39 17 21 1005.3 - 0.0
06/03:45pm 20.3 15.7 11.1 55 5.1 SE 26 37 14 20 1005.3 - 0.0
06/03:30pm 20.5 14.7 10.9 54 5.3 ESE 32 35 17 19 1005.4 - 0.0
06/03:15pm 20.6 15.3 11.3 55 5.2 ESE 30 39 16 21 1005.4 - 0.0
06/03:00pm 20.7 15.8 11.4 55 5.2 ESE 28 33 15 18 1005.6 - 0.0
06/02:45pm 20.6 15.7 11.2 55 5.2 ESE 28 35 15 19 1005.6 - 0.0
06/02:30pm 20.7 15.8 11.4 55 5.2 ESE 28 37 15 20 1005.7 - 0.0
06/02:15pm 20.8 16.5 12.0 57 5.0 ESE 26 33 14 18 1005.7 - 0.0
06/02:00pm 20.8 16.4 11.7 56 5.1 ESE 26 37 14 20 1005.9 - 0.0
06/01:45pm 21.1 16.8 12.2 56 5.0 ESE 26 33 14 18 1005.9 - 0.0
06/01:30pm 20.6 16.3 12.2 58 4.7 ESE 26 33 14 18 1006.1 - 0.0
06/01:15pm 20.9 15.8 11.8 56 5.1 ESE 30 33 16 18 1006.0 - 0.0
06/01:00pm 21.0 16.7 12.1 56 5.0 SE 26 33 14 18 1006.1 - 0.0
06/12:45pm 20.9 15.8 11.8 56 5.1 ESE 30 33 16 18 1006.3 - 0.0
06/12:30pm 21.3 17.5 12.3 56 5.1 SE 24 32 13 17 1006.3 - 0.0
06/12:15pm 21.5 18.1 12.4 56 5.2 SSE 22 32 12 17 1006.3 - 0.0
06/12:00pm 21.1 17.2 12.0 56 5.1 SE 24 30 13 16 1006.3 - 0.0
06/11:45am 21.4 17.9 12.3 56 5.2 SE 22 28 12 15 1006.4 - 0.0
06/11:30am 21.2 17.8 12.6 58 4.9 SE 22 32 12 17 1006.4 - 0.0
06/11:15am 20.8 17.1 12.6 59 4.7 SE 24 32 13 17 1006.3 - 0.0
06/11:00am 20.8 17.5 12.8 60 4.6 SE 22 28 12 15 1006.4 - 0.0
06/10:45am 20.4 16.5 12.0 58 4.7 SE 24 30 13 16 1006.4 - 0.0
06/10:30am 20.8 17.3 12.3 58 4.8 SE 22 30 12 16 1006.4 - 0.0
06/10:15am 20.9 17.7 12.0 56 5.0 SE 20 26 11 14 1006.5 - 0.0
06/10:00am 21.1 18.1 12.0 56 5.1 SSE 19 26 10 14 1006.7 - 0.0
06/09:45am 20.6 18.0 12.1 58 4.8 SSE 17 26 9 14 1006.7 - 0.0
06/09:30am 20.6 17.7 12.4 59 4.6 SSE 19 24 10 13 1006.6 - 0.0
06/09:15am 20.2 18.2 12.7 62 4.3 SSE 15 20 8 11 1006.5 - 0.0
06/09:00am 19.9 17.5 12.6 63 4.1 SSE 17 22 9 12 1006.5 - 5.9
06/08:45am 19.5 16.7 12.6 64 3.9 SSE 19 22 10 12 1006.5 - 5.9
06/08:30am 19.1 16.7 12.7 66 3.6 SE 17 20 9 11 1006.5 - 5.9
06/08:15am 19.2 16.5 12.9 67 3.6 SSE 19 24 10 13 1006.4 - 5.9
06/08:00am 19.0 16.9 13.5 70 3.1 SSE 17 20 9 11 1006.3 - 5.9
06/07:45am 18.5 17.3 14.1 75 2.5 S 13 20 7 11 1006.1 - 5.9
06/07:30am 17.9 17.6 14.3 79 2.1 S 9 13 5 7 1005.8 - 5.9
06/07:15am 17.3 17.5 14.1 81 1.8 WSW 6 7 3 4 1005.8 - 5.9
06/07:00am 17.3 17.5 14.7 85 1.5 S 7 15 4 8 1005.6 - 5.9
06/06:45am 16.3 16.3 14.2 87 1.2 SSW 7 11 4 6 1005.5 - 5.9
06/06:30am 15.9 15.8 13.9 88 1.1 S 7 15 4 8 1005.5 - 5.9
06/06:15am 15.6 14.3 13.8 89 1.0 S 13 20 7 11 1005.3 - 5.9
06/06:00am 15.3 12.8 13.6 90 1.0 SSE 19 20 10 11 1005.1 - 5.9
06/05:45am 15.4 12.9 13.6 89 1.0 SSE 19 20 10 11 1005.0 - 5.9
06/05:30am 15.5 13.0 13.6 88 1.1 SSE 19 22 10 12 1004.9 - 5.9
06/05:15am 15.6 13.0 13.8 89 1.0 SSE 20 22 11 12 1004.9 - 5.9
06/05:00am 15.5 12.9 13.7 89 1.0 SSE 20 28 11 15 1004.9 - 5.9
06/04:45am 15.7 13.1 13.8 88 1.1 SSE 20 26 11 14 1004.9 - 5.9
06/04:30am 15.8 12.9 13.9 88 1.1 SSE 22 28 12 15 1005.0 - 5.9
06/04:15am 15.8 12.9 14.0 89 1.0 SSE 22 30 12 16 1005.1 - 5.9
06/04:00am 15.9 12.6 14.0 88 1.1 SSE 24 33 13 18 1005.1 - 5.9
06/03:45am 15.9 13.0 14.1 89 1.0 S 22 35 12 19 1005.1 - 5.9
06/03:30am 16.1 12.9 14.3 89 1.0 SSE 24 37 13 20 1005.1 - 5.9
06/03:15am 16.3 12.8 14.5 89 1.0 SSE 26 37 14 20 1005.2 - 5.9
06/03:00am 16.5 13.9 14.9 90 0.9 SSE 22 37 12 20 1005.2 - 5.9
06/02:45am 16.8 14.4 15.3 91 0.9 SSE 22 33 12 18 1005.1 - 5.9
06/02:30am 16.9 13.4 15.6 92 0.8 SSE 28 37 15 20 1005.1 - 5.9
06/02:15am 16.9 14.6 15.6 92 0.8 SSE 22 35 12 19 1005.0 - 5.9
06/02:00am 16.9 14.6 15.6 92 0.8 SSE 22 32 12 17 1004.8 - 5.9
06/01:45am 17.0 15.3 15.7 92 0.8 SSE 19 26 10 14 1004.8 - 5.9
06/01:30am 17.2 15.9 15.9 92 0.8 S 17 24 9 13 1004.9 - 5.9
06/01:15am 17.4 17.0 16.1 92 0.8 S 13 22 7 12 1005.1 - 5.9
06/01:00am 17.6 16.9 16.3 92 0.8 SSE 15 22 8 12 1005.1 - 5.9
06/12:45am 17.6 16.1 16.4 93 0.7 SSE 19 24 10 13 1004.8 - 5.9
06/12:30am 17.7 16.3 16.5 93 0.7 SSE 19 22 10 12 1004.6 - 5.9
06/12:15am 17.7 16.3 16.5 93 0.7 SSE 19 22 10 12 1004.7 - 5.9
06/12:00am 17.8 16.8 16.6 93 0.7 SSE 17 22 9 12 1005.0 - 5.9
 
Date/Time
EDT
Temp
°C
App
Temp
°C
Dew
Point
°C
Rel
Hum
%
Delta-T
°C
Wind Press
QNH
hPa
Press
MSL
hPa
Rain since
9am
mm
Dir  Spd
km/h
Gust
km/h
Spd
kts
Gust
kts
05/11:45pm 17.8 16.2 16.6 93 0.7 SSE 20 24 11 13 1005.2 - 5.9
05/11:30pm 17.9 15.6 16.6 92 0.8 SSE 24 30 13 16 1005.2 - 5.9
05/11:15pm 17.9 16.3 16.6 92 0.8 SSE 20 26 11 14 1005.2 - 5.9
05/11:00pm 18.0 16.1 16.7 92 0.8 SSE 22 26 12 14 1005.2 - 5.9
05/10:45pm 18.1 16.6 16.7 91 0.8 SSE 20 22 11 12 1005.2 - 5.9
05/10:30pm 18.2 17.6 16.6 90 1.0 SSE 15 20 8 11 1005.3 - 5.7
05/10:15pm 18.3 16.9 16.6 90 1.0 SSE 19 30 10 16 1005.4 - 5.5
05/10:00pm 18.6 17.1 16.7 89 1.1 SE 20 28 11 15 1005.6 - 5.5
05/09:45pm 19.1 17.8 16.8 86 1.4 SSE 19 28 10 15 1006.2 - 5.1
05/09:30pm 19.7 19.3 17.2 85 1.5 SSE 15 24 8 13 1005.1 - 1.1
05/09:15pm 19.9 19.6 17.4 85 1.5 ESE 15 17 8 9 1004.1 - 0.8
05/09:00pm 19.7 19.3 17.2 85 1.5 ESE 15 19 8 10 1004.1 - 0.8
05/08:45pm 20.0 20.0 17.1 83 1.8 SE 13 15 7 8 1003.9 - 0.8
05/08:30pm 20.5 20.4 17.0 80 2.1 S 13 19 7 10 1003.9 - 0.4
05/08:15pm 20.8 19.4 17.0 79 2.3 S 20 30 11 16 1003.2 - 0.0
05/08:00pm 21.1 19.7 16.9 77 2.6 SSE 20 26 11 14 1002.6 - 0.0
05/07:45pm 21.4 20.2 17.0 76 2.7 SSE 19 22 10 12 1002.4 - 0.0
05/07:30pm 21.2 19.5 17.1 77 2.5 SE 22 28 12 15 1002.5 - 0.0
05/07:15pm 21.3 18.2 16.6 74 2.9 SSE 28 33 15 18 1002.5 - 0.0
05/07:00pm 22.8 19.9 16.2 66 4.0 SSE 26 41 14 22 1002.5 - 0.0
05/06:45pm 26.0 22.9 15.7 53 6.3 S 26 37 14 20 1002.2 - 0.0
05/06:30pm 26.7 26.1 14.5 47 7.3 - 11 20 6 11 1001.1 - 0.0
05/06:15pm 27.1 24.7 13.9 44 7.9 - 19 26 10 14 1000.7 - 0.0
05/06:00pm 27.6 25.9 15.7 48 7.3 N 19 24 10 13 1000.6 - 0.0
05/05:45pm 28.0 27.8 16.7 50 7.1 NE 13 17 7 9 1000.6 - 0.0
05/05:30pm 28.1 27.5 16.7 50 7.1 NE 15 22 8 12 1000.7 - 0.0
05/05:15pm 28.3 26.6 16.3 48 7.5 NE 20 32 11 17 1000.8 - 0.0
05/05:00pm 29.3 26.9 16.3 45 8.1 NNE 24 33 13 18 1001.0 - 0.0
05/04:45pm 29.1 27.4 16.2 45 8.1 NNE 20 28 11 15 1001.2 - 0.0
05/04:30pm 29.8 28.1 16.3 44 8.5 NE 20 24 11 13 1001.2 - 0.0
05/04:15pm 30.2 28.5 16.3 43 8.7 NE 20 24 11 13 1001.3 - 0.0
05/04:00pm 29.9 29.1 16.2 43 8.6 NNE 15 20 8 11 1001.4 - 0.0
05/03:45pm 30.6 29.4 16.1 41 9.1 NE 17 24 9 13 1001.5 - 0.0
05/03:30pm 31.2 30.1 14.4 36 10.3 NNE 13 20 7 11 1001.6 - 0.0
05/03:15pm 32.3 31.1 12.8 30 11.7 NW 11 24 6 13 1001.8 - 0.0
05/03:00pm 32.2 29.9 13.0 31 11.5 W 17 33 9 18 1002.0 - 0.0
05/02:45pm 32.0 31.0 13.4 32 11.2 WNW 11 20 6 11 1002.3 - 0.0
05/02:30pm 31.7 30.4 13.8 33 10.9 NW 13 19 7 10 1002.6 - 0.0
05/02:15pm 31.2 29.1 13.5 34 10.7 NNW 17 20 9 11 1002.8 - 0.0
05/02:00pm 30.8 30.3 13.9 35 10.3 NNW 9 17 5 9 1003.1 - 0.0
05/01:45pm 30.3 29.1 14.1 37 9.8 NNW 13 20 7 11 1003.3 - 0.0
05/01:30pm 29.9 29.6 14.4 38 9.4 NNW 9 17 5 9 1003.6 - 0.0
05/01:15pm 29.5 29.3 14.7 40 9.0 NNW 9 17 5 9 1004.0 - 0.0

Other formats

Comma delimited format used in spreadsheet applications
http://www.bom.gov.au/fwo/IDN60801/IDN60801.95757.axf

JavaScript Object Notation format (JSON) in row-major order
http://www.bom.gov.au/fwo/IDN60801/IDN60801.95757.json

Data quality

Most of these data are generated automatically and are frequently updated. Quality checks on data are not normally performed. It is possible for incorrect values to appear. Refer to information at About Latest Weather Observations and please check the disclaimer before using these data.